createdAt,value
2022-09-28T00:00:20.116Z,7.88
2022-09-28T00:01:20.184Z,7.88
2022-09-28T00:02:20.198Z,7.88
2022-09-28T00:03:20.125Z,7.9
2022-09-28T00:04:20.135Z,7.9
2022-09-28T00:05:20.116Z,7.9
2022-09-28T00:06:20.141Z,7.9
2022-09-28T00:07:20.138Z,7.89
2022-09-28T00:08:20.130Z,7.89
2022-09-28T00:09:20.390Z,7.9
2022-09-28T00:10:20.115Z,7.91
2022-09-28T00:11:20.117Z,7.91
2022-09-28T00:12:20.114Z,7.93
2022-09-28T00:13:20.116Z,7.92
2022-09-28T00:14:20.126Z,7.93
2022-09-28T00:15:20.133Z,7.93
2022-09-28T00:16:20.132Z,7.94
2022-09-28T00:17:20.126Z,7.93
2022-09-28T00:18:20.134Z,7.92
2022-09-28T00:19:20.133Z,7.91
2022-09-28T00:20:20.115Z,7.93
2022-09-28T00:21:20.123Z,7.93
2022-09-28T00:22:20.113Z,7.93
2022-09-28T00:23:20.119Z,7.93
2022-09-28T00:24:26.801Z,7.94
2022-09-28T00:25:20.110Z,7.95
2022-09-28T00:26:20.119Z,7.95
2022-09-28T00:27:20.142Z,7.97
2022-09-28T00:28:20.233Z,7.97
2022-09-28T00:29:20.183Z,7.97
2022-09-28T00:30:20.093Z,7.97
2022-09-28T00:31:20.155Z,7.97
2022-09-28T00:32:20.362Z,7.99
2022-09-28T00:33:20.097Z,8.01
2022-09-28T00:34:20.284Z,8.01
2022-09-28T00:35:20.183Z,8
2022-09-28T00:36:20.454Z,8
2022-09-28T00:37:20.132Z,7.99
2022-09-28T00:38:20.449Z,8
2022-09-28T00:39:20.254Z,8
2022-09-28T00:40:20.154Z,7.99
2022-09-28T00:41:20.109Z,7.99
2022-09-28T00:42:20.116Z,7.98
2022-09-28T00:43:20.173Z,7.97
2022-09-28T00:44:20.115Z,7.97
2022-09-28T00:45:20.114Z,7.97
2022-09-28T00:46:20.165Z,7.96
2022-09-28T00:47:20.119Z,7.95
2022-09-28T00:48:20.138Z,7.94
2022-09-28T00:49:20.136Z,7.94
2022-09-28T00:50:20.133Z,7.94
2022-09-28T00:51:20.117Z,7.93
2022-09-28T00:52:20.132Z,7.92
2022-09-28T00:53:20.124Z,7.92
2022-09-28T00:54:20.128Z,7.93
2022-09-28T00:55:20.136Z,7.94
2022-09-28T00:56:20.117Z,7.94
2022-09-28T00:57:20.128Z,7.93
2022-09-28T00:58:20.121Z,7.94
2022-09-28T00:59:20.139Z,7.94
2022-09-28T01:00:20.146Z,7.95
2022-09-28T01:01:20.137Z,7.94
2022-09-28T01:02:20.135Z,7.94
2022-09-28T01:03:20.135Z,7.93
2022-09-28T01:04:20.120Z,7.93
2022-09-28T01:05:20.132Z,7.93
2022-09-28T01:06:20.124Z,7.92
2022-09-28T01:07:20.127Z,7.91
2022-09-28T01:08:20.136Z,7.91
2022-09-28T01:09:20.130Z,7.91
2022-09-28T01:10:20.124Z,7.91
2022-09-28T01:11:20.138Z,7.91
2022-09-28T01:12:20.233Z,7.89
2022-09-28T01:13:20.126Z,7.9
2022-09-28T01:14:20.140Z,7.9
2022-09-28T01:15:20.125Z,7.89
2022-09-28T01:16:20.188Z,7.89
2022-09-28T01:17:20.125Z,7.89
2022-09-28T01:18:20.129Z,7.87
2022-09-28T01:19:20.126Z,7.89
2022-09-28T01:20:20.123Z,7.87
2022-09-28T01:21:20.167Z,7.87
2022-09-28T01:22:20.208Z,7.89
2022-09-28T01:23:20.286Z,7.88
2022-09-28T01:24:20.107Z,7.88
2022-09-28T01:25:20.118Z,7.9
2022-09-28T01:26:20.110Z,7.88
2022-09-28T01:27:20.109Z,7.89
2022-09-28T01:28:20.192Z,7.89
2022-09-28T01:29:20.225Z,7.87
2022-09-28T01:30:20.331Z,7.89
2022-09-28T01:31:20.291Z,7.9
2022-09-28T01:32:20.323Z,7.9
2022-09-28T01:33:20.829Z,7.89
2022-09-28T01:34:21.153Z,7.9
2022-09-28T01:35:20.423Z,7.91
2022-09-28T01:36:20.127Z,7.91
2022-09-28T01:37:20.126Z,7.9
2022-09-28T01:38:20.120Z,7.9
2022-09-28T01:39:20.123Z,7.91
2022-09-28T01:40:20.136Z,7.93
2022-09-28T01:41:20.116Z,7.93
2022-09-28T01:42:20.129Z,7.93
2022-09-28T01:43:20.133Z,7.93
2022-09-28T01:44:20.119Z,7.95
2022-09-28T01:45:20.273Z,7.94
2022-09-28T01:46:20.193Z,7.95
2022-09-28T01:47:20.115Z,7.96
2022-09-28T01:48:20.203Z,7.94
2022-09-28T01:49:20.129Z,7.93
2022-09-28T01:50:20.214Z,7.93
2022-09-28T01:51:20.157Z,7.93
2022-09-28T01:52:20.463Z,7.93
2022-09-28T01:53:20.171Z,7.93
2022-09-28T01:54:20.322Z,7.94
2022-09-28T01:55:20.342Z,7.92
2022-09-28T01:56:20.630Z,7.92
2022-09-28T01:57:20.885Z,7.91
2022-09-28T01:58:20.230Z,7.91
2022-09-28T01:59:20.517Z,7.9
2022-09-28T02:00:20.108Z,7.88
2022-09-28T02:01:20.269Z,7.9
2022-09-28T02:02:20.127Z,7.89
2022-09-28T02:03:20.301Z,7.89
2022-09-28T02:04:20.162Z,7.86
2022-09-28T02:05:20.097Z,7.86
2022-09-28T02:06:20.433Z,7.85
2022-09-28T02:07:20.509Z,7.83
2022-09-28T02:08:20.834Z,7.83
2022-09-28T02:09:20.413Z,7.81
2022-09-28T02:10:20.532Z,7.81
2022-09-28T02:11:20.091Z,7.81
2022-09-28T02:12:20.252Z,7.82
2022-09-28T02:13:20.579Z,7.84
2022-09-28T02:14:20.122Z,7.83
2022-09-28T02:15:20.285Z,7.82
2022-09-28T02:16:20.415Z,7.82
2022-09-28T02:17:20.653Z,7.82
2022-09-28T02:18:20.160Z,7.83
2022-09-28T02:19:20.722Z,7.81
2022-09-28T02:20:20.414Z,7.82
2022-09-28T02:21:20.819Z,7.82
2022-09-28T02:22:20.679Z,7.82
2022-09-28T02:23:19.930Z,7.81
2022-09-28T02:24:23.794Z,7.81
2022-09-28T02:25:20.498Z,7.81
2022-09-28T02:26:20.772Z,7.8
2022-09-28T02:27:20.124Z,7.79
2022-09-28T02:28:20.150Z,7.78
2022-09-28T02:29:20.131Z,7.77
2022-09-28T02:30:20.139Z,7.76
2022-09-28T02:31:20.396Z,7.75
2022-09-28T02:32:20.115Z,7.75
2022-09-28T02:33:20.134Z,7.74
2022-09-28T02:34:20.116Z,7.75
2022-09-28T02:35:20.121Z,7.74
2022-09-28T02:36:20.128Z,7.75
2022-09-28T02:37:20.121Z,7.75
2022-09-28T02:38:20.146Z,7.75
2022-09-28T02:39:20.138Z,7.76
2022-09-28T02:40:20.156Z,7.76
2022-09-28T02:41:20.140Z,7.76
2022-09-28T02:42:20.337Z,7.77
2022-09-28T02:43:20.158Z,7.77
2022-09-28T02:44:20.111Z,7.78
2022-09-28T02:45:20.137Z,7.78
2022-09-28T02:46:20.196Z,7.79
2022-09-28T02:47:20.119Z,7.78
2022-09-28T02:48:36.081Z,7.77
2022-09-28T02:49:23.282Z,7.78
2022-09-28T02:50:20.132Z,7.77
2022-09-28T02:51:20.168Z,7.78
2022-09-28T02:52:20.143Z,7.77
2022-09-28T02:53:20.126Z,7.76
2022-09-28T02:54:20.119Z,7.74
2022-09-28T02:55:20.125Z,7.74
2022-09-28T02:56:20.118Z,7.74
2022-09-28T02:57:20.117Z,7.72
2022-09-28T02:58:20.119Z,7.71
2022-09-28T02:59:20.128Z,7.71
2022-09-28T03:00:20.117Z,7.7
2022-09-28T03:01:20.146Z,7.69
2022-09-28T03:02:20.185Z,7.67
2022-09-28T03:03:20.125Z,7.66
2022-09-28T03:04:20.329Z,7.65
2022-09-28T03:05:20.120Z,7.63
2022-09-28T03:06:20.117Z,7.62
2022-09-28T03:07:20.115Z,7.6
2022-09-28T03:08:20.154Z,7.59
2022-09-28T03:09:20.124Z,7.58
2022-09-28T03:10:20.122Z,7.57
2022-09-28T03:11:20.117Z,7.56
2022-09-28T03:12:20.113Z,7.57
2022-09-28T03:13:20.137Z,7.56
2022-09-28T03:14:20.129Z,7.54
2022-09-28T03:15:20.206Z,7.54
2022-09-28T03:16:20.177Z,7.54
2022-09-28T03:17:20.106Z,7.53
2022-09-28T03:18:20.156Z,7.53
2022-09-28T03:19:20.127Z,7.52
2022-09-28T03:20:20.126Z,7.52
2022-09-28T03:21:20.115Z,7.53
2022-09-28T03:22:20.127Z,7.53
2022-09-28T03:23:25.208Z,7.52
2022-09-28T03:24:20.121Z,7.52
2022-09-28T03:25:20.141Z,7.52
2022-09-28T03:26:20.135Z,7.52
2022-09-28T03:27:20.142Z,7.51
2022-09-28T03:28:20.120Z,7.51
2022-09-28T03:29:20.131Z,7.5
2022-09-28T03:30:20.119Z,7.5
2022-09-28T03:31:20.164Z,7.51
2022-09-28T03:32:20.123Z,7.51
2022-09-28T03:33:20.117Z,7.49
2022-09-28T03:34:20.116Z,7.48
2022-09-28T03:35:20.120Z,7.5
2022-09-28T03:36:20.150Z,7.5
2022-09-28T03:37:20.206Z,7.51
2022-09-28T03:38:20.125Z,7.51
2022-09-28T03:39:20.121Z,7.5
2022-09-28T03:40:20.138Z,7.51
2022-09-28T03:41:20.129Z,7.52
2022-09-28T03:42:20.121Z,7.5
2022-09-28T03:43:20.101Z,7.5
2022-09-28T03:44:20.194Z,7.5
2022-09-28T03:45:20.098Z,7.5
2022-09-28T03:46:20.416Z,7.5
2022-09-28T03:47:20.174Z,7.49
2022-09-28T03:48:25.859Z,7.49
2022-09-28T03:49:20.363Z,7.49
2022-09-28T03:50:20.810Z,7.48
2022-09-28T03:51:20.130Z,7.48
2022-09-28T03:52:20.255Z,7.47
2022-09-28T03:53:20.124Z,7.45
2022-09-28T03:54:20.124Z,7.45
2022-09-28T03:55:20.135Z,7.45
2022-09-28T03:56:20.123Z,7.45
2022-09-28T03:57:20.132Z,7.45
2022-09-28T03:58:20.116Z,7.44
2022-09-28T03:59:20.137Z,7.43
2022-09-28T04:00:20.134Z,7.44
2022-09-28T04:01:20.212Z,7.44
2022-09-28T04:02:20.163Z,7.44
2022-09-28T04:03:20.121Z,7.47
2022-09-28T04:04:20.116Z,7.46
2022-09-28T04:05:20.131Z,7.46
2022-09-28T04:06:20.114Z,7.45
2022-09-28T04:07:20.128Z,7.45
2022-09-28T04:08:20.116Z,7.45
2022-09-28T04:09:20.222Z,7.46
2022-09-28T04:10:20.110Z,7.45
2022-09-28T04:11:20.150Z,7.45
2022-09-28T04:12:20.081Z,7.45
2022-09-28T04:13:20.093Z,7.45
2022-09-28T04:14:20.119Z,7.45
2022-09-28T04:15:20.105Z,7.46
2022-09-28T04:16:20.244Z,7.43
2022-09-28T04:17:20.123Z,7.44
2022-09-28T04:18:20.347Z,7.44
2022-09-28T04:19:20.151Z,7.45
2022-09-28T04:20:20.404Z,7.47
2022-09-28T04:21:20.293Z,7.47
2022-09-28T04:22:21.323Z,7.47
2022-09-28T04:23:21.222Z,7.45
2022-09-28T04:24:20.389Z,7.46
2022-09-28T04:25:20.637Z,7.47
2022-09-28T04:26:20.149Z,7.46
2022-09-28T04:27:20.436Z,7.48
2022-09-28T04:28:20.499Z,7.47
2022-09-28T04:29:21.059Z,7.47
2022-09-28T04:30:20.451Z,7.47
2022-09-28T04:31:20.186Z,7.47
2022-09-28T04:32:21.061Z,7.46
2022-09-28T04:33:20.125Z,7.47
2022-09-28T04:34:20.134Z,7.48
2022-09-28T04:35:20.128Z,7.48
2022-09-28T04:36:20.111Z,7.49
2022-09-28T04:37:20.123Z,7.5
2022-09-28T04:38:35.782Z,7.51
2022-09-28T04:39:20.115Z,7.52
2022-09-28T04:40:20.131Z,7.53
2022-09-28T04:41:20.097Z,7.52
2022-09-28T04:42:20.101Z,7.52
2022-09-28T04:43:20.336Z,7.53
2022-09-28T04:44:20.650Z,7.52
2022-09-28T04:45:21.425Z,7.51
2022-09-28T04:46:21.154Z,7.51
2022-09-28T04:47:20.503Z,7.52
2022-09-28T04:48:20.766Z,7.52
2022-09-28T04:49:21.076Z,7.53
2022-09-28T04:50:20.107Z,7.53
2022-09-28T04:51:20.106Z,7.54
2022-09-28T04:52:20.118Z,7.54
2022-09-28T04:53:20.117Z,7.54
2022-09-28T04:54:20.135Z,7.54
2022-09-28T04:55:20.122Z,7.54
2022-09-28T04:56:20.125Z,7.55
2022-09-28T04:57:20.122Z,7.55
2022-09-28T04:58:20.119Z,7.56
2022-09-28T04:59:20.127Z,7.56
2022-09-28T05:00:20.157Z,7.58
2022-09-28T05:01:20.155Z,7.58
2022-09-28T05:02:20.147Z,7.57
2022-09-28T05:03:20.124Z,7.58
2022-09-28T05:04:25.922Z,7.58
2022-09-28T05:05:20.136Z,7.57
2022-09-28T05:06:20.140Z,7.57
2022-09-28T05:07:20.127Z,7.57
2022-09-28T05:08:20.145Z,7.58
2022-09-28T05:09:20.345Z,7.58
2022-09-28T05:10:20.144Z,7.58
2022-09-28T05:11:20.124Z,7.58
2022-09-28T05:12:20.134Z,7.57
2022-09-28T05:13:20.126Z,7.57
2022-09-28T05:14:20.126Z,7.57
2022-09-28T05:15:20.131Z,7.57
2022-09-28T05:16:20.127Z,7.56
2022-09-28T05:17:20.132Z,7.57
2022-09-28T05:18:20.130Z,7.56
2022-09-28T05:19:20.168Z,7.56
2022-09-28T05:20:20.116Z,7.56
2022-09-28T05:21:20.195Z,7.56
2022-09-28T05:22:20.090Z,7.56
2022-09-28T05:23:20.287Z,7.55
2022-09-28T05:24:20.092Z,7.54
2022-09-28T05:25:20.235Z,7.55
2022-09-28T05:26:20.280Z,7.53
2022-09-28T05:27:20.457Z,7.54
2022-09-28T05:28:20.088Z,7.53
2022-09-28T05:29:20.253Z,7.53
2022-09-28T05:30:20.626Z,7.53
2022-09-28T05:31:20.363Z,7.53
2022-09-28T05:32:20.157Z,7.53
2022-09-28T05:33:20.143Z,7.52
2022-09-28T05:34:20.404Z,7.53
2022-09-28T05:35:20.093Z,7.51
2022-09-28T05:36:21.007Z,7.52
2022-09-28T05:37:20.523Z,7.52
2022-09-28T05:38:20.843Z,7.51
2022-09-28T05:39:21.462Z,7.51
2022-09-28T05:40:20.200Z,7.51
2022-09-28T05:41:20.133Z,7.49
2022-09-28T05:42:20.373Z,7.48
2022-09-28T05:43:20.118Z,7.48
2022-09-28T05:44:20.141Z,7.47
2022-09-28T05:45:20.175Z,7.48
2022-09-28T05:46:20.185Z,7.47
2022-09-28T05:47:20.122Z,7.47
2022-09-28T05:48:20.125Z,7.47
2022-09-28T05:49:20.144Z,7.46
2022-09-28T05:50:20.144Z,7.47
2022-09-28T05:51:20.151Z,7.48
2022-09-28T05:52:20.165Z,7.49
2022-09-28T05:53:20.133Z,7.49
2022-09-28T05:54:20.390Z,7.51
2022-09-28T05:55:20.128Z,7.52
2022-09-28T05:56:20.123Z,7.52
2022-09-28T05:57:20.144Z,7.49
2022-09-28T05:58:20.118Z,7.46
2022-09-28T05:59:20.124Z,7.43
2022-09-28T06:00:20.118Z,7.43
2022-09-28T06:01:20.156Z,7.43
2022-09-28T06:02:20.171Z,7.46
2022-09-28T06:03:20.134Z,7.48
2022-09-28T06:04:20.130Z,7.49
2022-09-28T06:05:20.124Z,7.49
2022-09-28T06:06:20.115Z,7.51
2022-09-28T06:07:20.117Z,7.52
2022-09-28T06:08:20.146Z,7.52
2022-09-28T06:09:25.750Z,7.52
2022-09-28T06:10:20.106Z,7.54
2022-09-28T06:11:20.127Z,7.54
2022-09-28T06:12:20.131Z,7.55
2022-09-28T06:13:20.147Z,7.54
2022-09-28T06:14:20.121Z,7.51
2022-09-28T06:15:20.134Z,7.49
2022-09-28T06:16:20.144Z,7.5
2022-09-28T06:17:20.113Z,7.53
2022-09-28T06:18:20.148Z,7.54
2022-09-28T06:19:20.111Z,7.52
2022-09-28T06:20:20.128Z,7.51
2022-09-28T06:21:20.125Z,7.51
2022-09-28T06:22:20.122Z,7.52
2022-09-28T06:23:20.147Z,7.5
2022-09-28T06:24:20.121Z,7.49
2022-09-28T06:25:20.160Z,7.48
2022-09-28T06:26:20.250Z,7.48
2022-09-28T06:27:20.116Z,7.47
2022-09-28T06:28:20.139Z,7.47
2022-09-28T06:29:20.120Z,7.48
2022-09-28T06:30:20.122Z,7.49
2022-09-28T06:31:20.141Z,7.5
2022-09-28T06:32:20.126Z,7.51
2022-09-28T06:33:20.131Z,7.49
2022-09-28T06:34:20.133Z,7.49
2022-09-28T06:35:20.140Z,7.48
2022-09-28T06:36:20.115Z,7.47
2022-09-28T06:37:20.205Z,7.48
2022-09-28T06:38:20.125Z,7.49
2022-09-28T06:39:20.122Z,7.51
2022-09-28T06:40:20.123Z,7.52
2022-09-28T06:41:20.100Z,7.54
2022-09-28T06:42:20.118Z,7.55
2022-09-28T06:43:20.153Z,7.55
2022-09-28T06:44:20.154Z,7.56
2022-09-28T06:45:20.398Z,7.56
2022-09-28T06:46:20.441Z,7.58
2022-09-28T06:47:20.180Z,7.57
2022-09-28T06:48:20.430Z,7.59
2022-09-28T06:49:20.283Z,7.61
2022-09-28T06:50:20.560Z,7.59
2022-09-28T06:51:20.286Z,7.61
2022-09-28T06:52:20.527Z,7.62
2022-09-28T06:53:20.195Z,7.64
2022-09-28T06:54:20.545Z,7.67
2022-09-28T06:55:20.263Z,7.72
2022-09-28T06:56:20.462Z,7.72
2022-09-28T06:57:21.459Z,7.71
2022-09-28T06:58:20.660Z,7.74
2022-09-28T06:59:20.256Z,7.79
2022-09-28T07:00:20.492Z,7.81
2022-09-28T07:01:20.162Z,7.84
2022-09-28T07:02:20.227Z,7.82
2022-09-28T07:03:20.133Z,7.84
2022-09-28T07:04:20.385Z,7.87
2022-09-28T07:05:20.122Z,7.85
2022-09-28T07:06:20.345Z,7.86
2022-09-28T07:07:20.122Z,7.91
2022-09-28T07:08:20.150Z,7.95
2022-09-28T07:09:31.119Z,7.98
2022-09-28T07:10:20.126Z,8.04
2022-09-28T07:11:20.104Z,8.09
2022-09-28T07:12:20.120Z,8.11
2022-09-28T07:13:45.967Z,8.19
2022-09-28T07:14:39.482Z,8.22
2022-09-28T07:15:20.120Z,8.27
2022-09-28T07:16:27.055Z,8.28
2022-09-28T07:17:20.156Z,8.31
2022-09-28T07:18:20.163Z,8.31
2022-09-28T07:19:20.381Z,8.37
2022-09-28T07:20:20.254Z,8.42
2022-09-28T07:21:28.491Z,8.4
2022-09-28T07:22:34.612Z,8.43
2022-09-28T07:23:20.167Z,8.47
2022-09-28T07:24:20.406Z,8.46
2022-09-28T07:25:20.122Z,8.46
2022-09-28T07:26:24.291Z,8.5
2022-09-28T07:27:20.133Z,8.5
2022-09-28T07:28:20.129Z,8.5
2022-09-28T07:29:20.200Z,8.52
2022-09-28T07:30:20.212Z,8.48
2022-09-28T07:31:20.169Z,8.48
2022-09-28T07:32:20.147Z,8.49
2022-09-28T07:33:20.112Z,8.47
2022-09-28T07:34:20.134Z,8.45
2022-09-28T07:35:20.123Z,8.48
2022-09-28T07:36:20.113Z,8.5
2022-09-28T07:37:20.121Z,8.46
2022-09-28T07:38:20.153Z,8.5
2022-09-28T07:39:20.122Z,8.54
2022-09-28T07:40:20.155Z,8.56
2022-09-28T07:41:20.259Z,8.6
2022-09-28T07:42:20.121Z,8.58
2022-09-28T07:43:20.134Z,8.57
2022-09-28T07:44:20.129Z,8.58
2022-09-28T07:45:20.128Z,8.53
2022-09-28T07:46:20.135Z,8.52
2022-09-28T07:47:20.122Z,8.47
2022-09-28T07:48:20.126Z,8.49
2022-09-28T07:49:20.213Z,8.5
2022-09-28T07:50:20.236Z,8.48
2022-09-28T07:51:20.308Z,8.46
2022-09-28T07:52:20.121Z,8.51
2022-09-28T07:53:20.125Z,8.59
2022-09-28T07:54:20.111Z,8.64
2022-09-28T07:55:20.119Z,8.72
2022-09-28T07:56:20.188Z,8.78
2022-09-28T07:57:20.337Z,8.87
2022-09-28T07:58:20.570Z,8.96
2022-09-28T07:59:20.341Z,9.02
2022-09-28T08:00:20.310Z,9.07
2022-09-28T08:01:20.706Z,9.11
2022-09-28T08:02:20.351Z,9.1
2022-09-28T08:03:20.440Z,9.08
2022-09-28T08:04:20.118Z,9.08
2022-09-28T08:05:20.129Z,9.1
2022-09-28T08:06:20.129Z,9.1
2022-09-28T08:07:24.154Z,9.08
2022-09-28T08:08:20.128Z,9.04
2022-09-28T08:09:20.134Z,9.02
2022-09-28T08:10:20.132Z,9.04
2022-09-28T08:11:20.145Z,9
2022-09-28T08:12:20.172Z,9.02
2022-09-28T08:13:23.432Z,8.94
2022-09-28T08:14:20.135Z,8.93
2022-09-28T08:15:20.121Z,8.93
2022-09-28T08:16:20.217Z,8.98
2022-09-28T08:17:20.122Z,8.95
2022-09-28T08:18:20.116Z,8.94
2022-09-28T08:19:20.126Z,8.92
2022-09-28T08:20:20.123Z,8.9
2022-09-28T08:21:20.119Z,8.89
2022-09-28T08:22:20.135Z,8.89
2022-09-28T08:23:20.149Z,8.9
2022-09-28T08:24:20.163Z,8.88
2022-09-28T08:25:20.121Z,8.93
2022-09-28T08:26:20.134Z,9.01
2022-09-28T08:27:20.105Z,9.07
2022-09-28T08:28:20.123Z,9.14
2022-09-28T08:29:20.120Z,9.24
2022-09-28T08:30:20.131Z,9.3
2022-09-28T08:31:20.172Z,9.33
2022-09-28T08:32:20.111Z,9.3
2022-09-28T08:33:20.143Z,9.31
2022-09-28T08:34:20.245Z,9.35
2022-09-28T08:35:20.124Z,9.33
2022-09-28T08:36:20.190Z,9.29
2022-09-28T08:37:20.396Z,9.26
2022-09-28T08:38:20.243Z,9.26
2022-09-28T08:39:20.439Z,9.31
2022-09-28T08:40:20.274Z,9.35
2022-09-28T08:41:20.595Z,9.39
2022-09-28T08:42:20.276Z,9.41
2022-09-28T08:43:20.940Z,9.48
2022-09-28T08:44:20.263Z,9.52
2022-09-28T08:45:21.067Z,9.57
2022-09-28T08:46:26.945Z,9.66
2022-09-28T08:47:20.562Z,9.75
2022-09-28T08:48:20.786Z,9.84
2022-09-28T08:49:25.198Z,9.94
2022-09-28T08:50:20.198Z,10.05
2022-09-28T08:51:20.504Z,10.11
2022-09-28T08:52:20.733Z,10.14
2022-09-28T08:53:20.155Z,10.23
2022-09-28T08:54:20.202Z,10.28
2022-09-28T08:55:20.182Z,10.3
2022-09-28T08:56:20.157Z,10.27
2022-09-28T08:57:20.127Z,10.26
2022-09-28T08:58:20.183Z,10.28
2022-09-28T08:59:20.178Z,10.26
2022-09-28T09:00:20.190Z,10.27
2022-09-28T09:01:20.203Z,10.26
2022-09-28T09:02:20.179Z,10.25
2022-09-28T09:03:20.114Z,10.19
2022-09-28T09:04:20.123Z,10.11
2022-09-28T09:05:20.144Z,10.06
2022-09-28T09:06:20.282Z,9.96
2022-09-28T09:07:20.226Z,9.82
2022-09-28T09:08:20.130Z,9.8
2022-09-28T09:09:20.128Z,9.76
2022-09-28T09:10:20.139Z,9.77
2022-09-28T09:11:20.135Z,9.77
2022-09-28T09:12:20.181Z,9.78
2022-09-28T09:13:20.166Z,9.85
2022-09-28T09:14:20.152Z,9.94
2022-09-28T09:15:20.187Z,10.01
2022-09-28T09:16:20.210Z,9.98
2022-09-28T09:17:20.183Z,9.99
2022-09-28T09:18:21.135Z,10
2022-09-28T09:19:20.122Z,9.96
2022-09-28T09:20:20.188Z,9.93
2022-09-28T09:21:20.121Z,9.92
2022-09-28T09:22:20.119Z,9.86
2022-09-28T09:23:20.109Z,9.81
2022-09-28T09:24:20.127Z,9.83
2022-09-28T09:25:20.129Z,9.88
2022-09-28T09:26:25.198Z,9.93
2022-09-28T09:27:20.133Z,10
2022-09-28T09:28:20.123Z,10.02
2022-09-28T09:29:20.129Z,10.04
2022-09-28T09:30:21.176Z,10.04
2022-09-28T09:31:23.149Z,10.08
2022-09-28T09:32:20.119Z,10.03
2022-09-28T09:33:20.145Z,10.03
2022-09-28T09:34:20.122Z,10.03
2022-09-28T09:35:26.016Z,10.04
2022-09-28T09:36:20.127Z,10.07
2022-09-28T09:37:20.115Z,10.11
2022-09-28T09:38:20.128Z,10.16
2022-09-28T09:39:20.138Z,10.19
2022-09-28T09:40:20.186Z,10.22
2022-09-28T09:41:20.117Z,10.24
2022-09-28T09:42:20.156Z,10.28
2022-09-28T09:43:20.117Z,10.31
2022-09-28T09:44:20.126Z,10.35
2022-09-28T09:45:20.122Z,10.39
2022-09-28T09:46:20.180Z,10.45
2022-09-28T09:47:20.127Z,10.49
2022-09-28T09:48:20.147Z,10.59
2022-09-28T09:49:20.106Z,10.61
2022-09-28T09:50:20.263Z,10.66
2022-09-28T09:51:20.083Z,10.75
2022-09-28T09:52:20.243Z,10.77
2022-09-28T09:53:20.449Z,10.81
2022-09-28T09:54:20.240Z,10.85
2022-09-28T09:55:20.453Z,10.88
2022-09-28T09:56:20.247Z,10.87
2022-09-28T09:57:20.599Z,10.87
2022-09-28T09:58:20.294Z,10.73
2022-09-28T09:59:20.516Z,10.69
2022-09-28T10:00:20.232Z,10.58
2022-09-28T10:01:20.546Z,10.5
2022-09-28T10:02:20.132Z,10.41
2022-09-28T10:03:20.220Z,10.4
2022-09-28T10:04:20.101Z,10.35
2022-09-28T10:05:20.242Z,10.37
2022-09-28T10:06:20.181Z,10.48
2022-09-28T10:07:20.463Z,10.59
2022-09-28T10:08:20.296Z,10.86
2022-09-28T10:09:20.105Z,11.1
2022-09-28T10:10:20.375Z,11.26
2022-09-28T10:11:20.706Z,11.42
2022-09-28T10:12:20.996Z,11.32
2022-09-28T10:13:20.759Z,11.34
2022-09-28T10:14:20.446Z,11.41
2022-09-28T10:15:20.154Z,11.54
2022-09-28T10:16:20.406Z,11.55
2022-09-28T10:17:20.583Z,11.6
2022-09-28T10:18:20.119Z,11.56
2022-09-28T10:19:20.170Z,11.51
2022-09-28T10:20:20.437Z,11.54
2022-09-28T10:21:20.128Z,11.59
2022-09-28T10:22:20.136Z,11.56
2022-09-28T10:23:20.129Z,11.49
2022-09-28T10:24:20.195Z,11.34
2022-09-28T10:25:20.115Z,11.24
2022-09-28T10:26:24.873Z,11.16
2022-09-28T10:27:20.131Z,11.05
2022-09-28T10:28:20.126Z,11.01
2022-09-28T10:29:20.120Z,11.01
2022-09-28T10:30:20.121Z,11.06
2022-09-28T10:31:20.122Z,11.09
2022-09-28T10:32:20.133Z,11.07
2022-09-28T10:33:20.193Z,11
2022-09-28T10:34:20.178Z,11.02
2022-09-28T10:35:20.140Z,11.05
2022-09-28T10:36:20.151Z,11.15
2022-09-28T10:37:20.128Z,11.24
2022-09-28T10:38:20.126Z,11.32
2022-09-28T10:39:20.110Z,11.3
2022-09-28T10:40:20.182Z,11.27
2022-09-28T10:41:20.134Z,11.33
2022-09-28T10:42:20.128Z,11.24
2022-09-28T10:43:20.192Z,11.25
2022-09-28T10:44:20.246Z,11.2
2022-09-28T10:45:20.217Z,11.17
2022-09-28T10:46:20.168Z,11.1
2022-09-28T10:47:20.123Z,11.07
2022-09-28T10:48:20.117Z,11.04
2022-09-28T10:49:20.111Z,10.95
2022-09-28T10:50:20.121Z,10.9
2022-09-28T10:51:20.196Z,10.91
2022-09-28T10:52:20.127Z,10.88
2022-09-28T10:53:20.129Z,10.83
2022-09-28T10:54:20.233Z,10.77
2022-09-28T10:55:20.278Z,10.77
2022-09-28T10:56:20.136Z,10.88
2022-09-28T10:57:20.123Z,10.96
2022-09-28T10:58:20.132Z,11.08
2022-09-28T10:59:20.142Z,11.28
2022-09-28T11:00:20.153Z,11.52
2022-09-28T11:01:20.188Z,11.74
2022-09-28T11:02:20.163Z,12.13
2022-09-28T11:03:20.156Z,12.53
2022-09-28T11:04:20.124Z,12.78
2022-09-28T11:05:20.121Z,13.03
2022-09-28T11:06:20.127Z,13.06
2022-09-28T11:07:20.135Z,13.08
2022-09-28T11:08:20.398Z,13.05
2022-09-28T11:09:20.160Z,12.9
2022-09-28T11:10:20.107Z,12.95
2022-09-28T11:11:20.126Z,12.99
2022-09-28T11:12:20.117Z,13.07
2022-09-28T11:13:20.152Z,12.81
2022-09-28T11:14:20.134Z,12.54
2022-09-28T11:15:20.112Z,12.43
2022-09-28T11:16:20.162Z,12.28
2022-09-28T11:17:20.248Z,12.06
2022-09-28T11:18:20.255Z,11.8
2022-09-28T11:19:20.121Z,11.73
2022-09-28T11:20:27.256Z,11.7
2022-09-28T11:21:20.125Z,11.7
2022-09-28T11:22:20.133Z,11.81
2022-09-28T11:23:20.146Z,11.95
2022-09-28T11:24:20.211Z,12.11
2022-09-28T11:25:20.124Z,12.22
2022-09-28T11:26:20.123Z,12.31
2022-09-28T11:27:20.133Z,12.4
2022-09-28T11:28:20.179Z,12.53
2022-09-28T11:29:20.176Z,12.57
2022-09-28T11:30:20.385Z,12.74
2022-09-28T11:31:20.125Z,12.86
2022-09-28T11:32:20.115Z,12.88
2022-09-28T11:33:20.157Z,12.64
2022-09-28T11:34:22.804Z,12.51
2022-09-28T11:35:20.121Z,12.29
2022-09-28T11:36:20.128Z,12.22
2022-09-28T11:37:20.119Z,12.2
2022-09-28T11:38:20.180Z,12.27
2022-09-28T11:39:20.179Z,12.27
2022-09-28T11:40:20.222Z,12.32
2022-09-28T11:41:20.126Z,12.35
2022-09-28T11:42:20.125Z,12.34
2022-09-28T11:43:20.157Z,12.38
2022-09-28T11:44:20.267Z,12.4
2022-09-28T11:45:20.107Z,12.41
2022-09-28T11:46:20.191Z,12.52
2022-09-28T11:47:20.079Z,12.47
2022-09-28T11:48:20.277Z,12.43
2022-09-28T11:49:20.137Z,12.44
2022-09-28T11:50:24.508Z,12.48
2022-09-28T11:51:20.194Z,12.56
2022-09-28T11:52:20.200Z,12.72
2022-09-28T11:53:20.476Z,12.93
2022-09-28T11:54:20.165Z,13.01
2022-09-28T11:55:20.157Z,12.98
2022-09-28T11:56:20.440Z,12.81
2022-09-28T11:57:20.564Z,12.59
2022-09-28T11:58:20.175Z,12.38
2022-09-28T11:59:20.439Z,12.32
2022-09-28T12:00:20.436Z,12.38
2022-09-28T12:01:20.137Z,12.62
2022-09-28T12:02:20.310Z,12.94
2022-09-28T12:03:20.862Z,13.23
2022-09-28T12:04:20.394Z,13.42
2022-09-28T12:05:23.197Z,13.34
2022-09-28T12:06:20.126Z,13.34
2022-09-28T12:07:20.119Z,13.37
2022-09-28T12:08:20.116Z,13.48
2022-09-28T12:09:20.127Z,13.55
2022-09-28T12:10:20.135Z,13.39
2022-09-28T12:11:20.120Z,13.05
2022-09-28T12:12:20.134Z,12.86
2022-09-28T12:13:20.144Z,12.8
2022-09-28T12:14:20.145Z,12.76
2022-09-28T12:15:20.121Z,12.69
2022-09-28T12:16:45.521Z,12.67
2022-09-28T12:17:21.193Z,12.74
2022-09-28T12:18:20.126Z,12.91
2022-09-28T12:19:20.172Z,13.05
2022-09-28T12:20:20.135Z,13.24
2022-09-28T12:21:20.133Z,13.58
2022-09-28T12:22:20.114Z,13.71
2022-09-28T12:23:20.134Z,13.9
2022-09-28T12:24:20.187Z,14.07
2022-09-28T12:25:20.137Z,14.09
2022-09-28T12:26:20.112Z,14.11
2022-09-28T12:27:20.123Z,14.23
2022-09-28T12:28:20.133Z,14.26
2022-09-28T12:29:20.128Z,14.38
2022-09-28T12:30:20.126Z,14.36
2022-09-28T12:31:20.172Z,14.37
2022-09-28T12:32:20.124Z,14.38
2022-09-28T12:33:20.128Z,14.65
2022-09-28T12:34:20.111Z,14.6
2022-09-28T12:35:20.129Z,14.48
2022-09-28T12:36:20.137Z,14.34
2022-09-28T12:37:20.354Z,14.26
2022-09-28T12:38:20.116Z,13.95
2022-09-28T12:39:31.261Z,14.09
2022-09-28T12:40:20.142Z,14.24
2022-09-28T12:41:20.127Z,14.21
2022-09-28T12:42:20.111Z,14.21
2022-09-28T12:43:20.121Z,14.16
2022-09-28T12:44:20.129Z,14.06
2022-09-28T12:45:20.135Z,14.19
2022-09-28T12:46:20.200Z,14.24
2022-09-28T12:47:20.195Z,14.44
2022-09-28T12:48:20.117Z,14.58
2022-09-28T12:50:39.499Z,14.58
2022-09-28T12:51:20.123Z,14.86
2022-09-28T12:52:20.132Z,14.83
2022-09-28T12:53:20.146Z,15.03
2022-09-28T12:54:20.130Z,15.07
2022-09-28T12:55:20.127Z,15.07
2022-09-28T12:56:22.155Z,14.67
2022-09-28T12:57:20.115Z,14.05
2022-09-28T12:58:20.314Z,13.71
2022-09-28T12:59:20.628Z,13.5
2022-09-28T13:00:20.278Z,13.13
2022-09-28T13:01:20.706Z,12.93
2022-09-28T13:02:20.977Z,12.93
2022-09-28T13:03:20.267Z,12.97
2022-09-28T13:04:20.584Z,13
2022-09-28T13:05:20.856Z,13.06
2022-09-28T13:06:20.106Z,12.96
2022-09-28T13:07:20.317Z,13.01
2022-09-28T13:08:20.112Z,12.99
2022-09-28T13:09:20.440Z,12.91
2022-09-28T13:10:20.128Z,12.96
2022-09-28T13:11:20.120Z,13.08
2022-09-28T13:12:20.123Z,13.28
2022-09-28T13:13:20.121Z,13.35
2022-09-28T13:14:20.121Z,13.44